sensor_id;sensor_type;location;lat;lon;timestamp;P1;durP1;ratioP1;P2;durP2;ratioP2
5052;SDS011;2545;50.892;5.740;2023-04-24T00:02:21;6.33;;;4.50;;
5052;SDS011;2545;50.892;5.740;2023-04-24T00:04:46;8.57;;;5.67;;
5052;SDS011;2545;50.892;5.740;2023-04-24T00:07:13;7.43;;;4.80;;
5052;SDS011;2545;50.892;5.740;2023-04-24T00:09:41;6.07;;;4.97;;
5052;SDS011;2545;50.892;5.740;2023-04-24T00:12:10;11.13;;;5.37;;
5052;SDS011;2545;50.892;5.740;2023-04-24T00:14:35;12.40;;;5.50;;
5052;SDS011;2545;50.892;5.740;2023-04-24T00:17:01;10.60;;;6.10;;
5052;SDS011;2545;50.892;5.740;2023-04-24T00:19:27;7.80;;;5.43;;
5052;SDS011;2545;50.892;5.740;2023-04-24T00:21:53;9.10;;;6.37;;
5052;SDS011;2545;50.892;5.740;2023-04-24T00:24:19;14.00;;;6.00;;
5052;SDS011;2545;50.892;5.740;2023-04-24T00:26:45;9.33;;;5.73;;
5052;SDS011;2545;50.892;5.740;2023-04-24T00:29:10;11.33;;;5.90;;
5052;SDS011;2545;50.892;5.740;2023-04-24T00:31:35;17.43;;;7.23;;
5052;SDS011;2545;50.892;5.740;2023-04-24T00:34:01;11.53;;;7.60;;
5052;SDS011;2545;50.892;5.740;2023-04-24T00:36:27;11.30;;;7.30;;
5052;SDS011;2545;50.892;5.740;2023-04-24T00:38:53;10.90;;;6.93;;
5052;SDS011;2545;50.892;5.740;2023-04-24T00:41:18;18.17;;;7.60;;
5052;SDS011;2545;50.892;5.740;2023-04-24T00:43:44;11.10;;;7.40;;
5052;SDS011;2545;50.892;5.740;2023-04-24T00:46:10;15.53;;;7.27;;
5052;SDS011;2545;50.892;5.740;2023-04-24T00:48:37;17.60;;;8.53;;
5052;SDS011;2545;50.892;5.740;2023-04-24T00:51:04;17.73;;;9.17;;
5052;SDS011;2545;50.892;5.740;2023-04-24T00:53:29;15.03;;;9.10;;
5052;SDS011;2545;50.892;5.740;2023-04-24T00:55:55;13.33;;;8.60;;
5052;SDS011;2545;50.892;5.740;2023-04-24T00:58:21;13.90;;;9.00;;
5052;SDS011;2545;50.892;5.740;2023-04-24T01:00:48;16.83;;;8.90;;
5052;SDS011;2545;50.892;5.740;2023-04-24T01:03:17;16.33;;;8.87;;
5052;SDS011;2545;50.892;5.740;2023-04-24T01:05:45;21.07;;;8.70;;
5052;SDS011;2545;50.892;5.740;2023-04-24T01:08:10;15.63;;;9.50;;
5052;SDS011;2545;50.892;5.740;2023-04-24T01:10:36;14.00;;;8.30;;
5052;SDS011;2545;50.892;5.740;2023-04-24T01:13:03;20.43;;;9.80;;
5052;SDS011;2545;50.892;5.740;2023-04-24T01:15:29;21.53;;;10.10;;
5052;SDS011;2545;50.892;5.740;2023-04-24T01:17:54;17.50;;;10.87;;
5052;SDS011;2545;50.892;5.740;2023-04-24T01:20:21;18.80;;;9.83;;
5052;SDS011;2545;50.892;5.740;2023-04-24T01:22:46;23.30;;;10.53;;
5052;SDS011;2545;50.892;5.740;2023-04-24T01:25:12;16.00;;;10.10;;
5052;SDS011;2545;50.892;5.740;2023-04-24T01:27:37;19.47;;;10.10;;
5052;SDS011;2545;50.892;5.740;2023-04-24T01:30:03;19.27;;;10.90;;
5052;SDS011;2545;50.892;5.740;2023-04-24T01:32:29;22.03;;;9.80;;
5052;SDS011;2545;50.892;5.740;2023-04-24T01:34:54;27.23;;;10.37;;
5052;SDS011;2545;50.892;5.740;2023-04-24T01:37:20;14.10;;;9.80;;
5052;SDS011;2545;50.892;5.740;2023-04-24T01:39:45;21.77;;;10.60;;
5052;SDS011;2545;50.892;5.740;2023-04-24T01:42:11;19.87;;;9.87;;
5052;SDS011;2545;50.892;5.740;2023-04-24T01:44:37;25.27;;;10.30;;
5052;SDS011;2545;50.892;5.740;2023-04-24T01:47:03;17.80;;;9.70;;
5052;SDS011;2545;50.892;5.740;2023-04-24T01:49:29;22.40;;;10.57;;
5052;SDS011;2545;50.892;5.740;2023-04-24T01:51:54;20.83;;;9.40;;
5052;SDS011;2545;50.892;5.740;2023-04-24T01:54:19;16.23;;;9.83;;
5052;SDS011;2545;50.892;5.740;2023-04-24T01:56:45;30.80;;;10.80;;
5052;SDS011;2545;50.892;5.740;2023-04-24T01:59:11;19.67;;;10.20;;
5052;SDS011;2545;50.892;5.740;2023-04-24T02:01:37;19.00;;;10.77;;
5052;SDS011;2545;50.892;5.740;2023-04-24T02:04:03;20.77;;;10.03;;
5052;SDS011;2545;50.892;5.740;2023-04-24T02:06:30;15.23;;;10.27;;
5052;SDS011;2545;50.892;5.740;2023-04-24T02:08:56;14.87;;;9.33;;
5052;SDS011;2545;50.892;5.740;2023-04-24T02:11:22;22.60;;;9.93;;
5052;SDS011;2545;50.892;5.740;2023-04-24T02:13:48;25.67;;;11.30;;
5052;SDS011;2545;50.892;5.740;2023-04-24T02:16:13;19.37;;;12.07;;
5052;SDS011;2545;50.892;5.740;2023-04-24T02:18:38;14.73;;;9.30;;
5052;SDS011;2545;50.892;5.740;2023-04-24T02:21:03;14.40;;;9.80;;
5052;SDS011;2545;50.892;5.740;2023-04-24T02:23:29;16.10;;;10.20;;
5052;SDS011;2545;50.892;5.740;2023-04-24T02:25:54;21.07;;;10.60;;
5052;SDS011;2545;50.892;5.740;2023-04-24T02:28:20;12.37;;;8.57;;
5052;SDS011;2545;50.892;5.740;2023-04-24T02:30:46;19.30;;;9.17;;
5052;SDS011;2545;50.892;5.740;2023-04-24T02:33:11;17.67;;;11.30;;
5052;SDS011;2545;50.892;5.740;2023-04-24T02:35:37;15.70;;;9.73;;
5052;SDS011;2545;50.892;5.740;2023-04-24T02:38:02;15.93;;;11.30;;
5052;SDS011;2545;50.892;5.740;2023-04-24T02:40:28;17.23;;;10.47;;
5052;SDS011;2545;50.892;5.740;2023-04-24T02:42:54;24.00;;;10.23;;
5052;SDS011;2545;50.892;5.740;2023-04-24T02:45:19;19.83;;;10.00;;
5052;SDS011;2545;50.892;5.740;2023-04-24T02:47:44;21.00;;;9.70;;
5052;SDS011;2545;50.892;5.740;2023-04-24T02:50:10;18.67;;;12.33;;
5052;SDS011;2545;50.892;5.740;2023-04-24T02:52:35;20.83;;;10.87;;
5052;SDS011;2545;50.892;5.740;2023-04-24T02:55:00;21.57;;;11.23;;
5052;SDS011;2545;50.892;5.740;2023-04-24T02:57:26;20.40;;;10.03;;
5052;SDS011;2545;50.892;5.740;2023-04-24T02:59:51;15.93;;;9.50;;
5052;SDS011;2545;50.892;5.740;2023-04-24T03:02:16;14.67;;;10.33;;
5052;SDS011;2545;50.892;5.740;2023-04-24T03:04:42;20.50;;;11.40;;
5052;SDS011;2545;50.892;5.740;2023-04-24T03:07:07;15.60;;;9.50;;
5052;SDS011;2545;50.892;5.740;2023-04-24T03:09:33;16.77;;;11.00;;
5052;SDS011;2545;50.892;5.740;2023-04-24T03:11:58;15.63;;;9.90;;
5052;SDS011;2545;50.892;5.740;2023-04-24T03:14:23;15.90;;;9.53;;
5052;SDS011;2545;50.892;5.740;2023-04-24T03:16:49;15.67;;;9.23;;
5052;SDS011;2545;50.892;5.740;2023-04-24T03:19:15;15.40;;;10.00;;
5052;SDS011;2545;50.892;5.740;2023-04-24T03:21:40;19.23;;;10.20;;
5052;SDS011;2545;50.892;5.740;2023-04-24T03:24:09;19.90;;;10.93;;
5052;SDS011;2545;50.892;5.740;2023-04-24T03:26:34;25.60;;;11.53;;
5052;SDS011;2545;50.892;5.740;2023-04-24T03:29:00;21.83;;;10.60;;
5052;SDS011;2545;50.892;5.740;2023-04-24T03:31:26;18.57;;;11.20;;
5052;SDS011;2545;50.892;5.740;2023-04-24T03:33:51;17.80;;;12.67;;
5052;SDS011;2545;50.892;5.740;2023-04-24T03:36:16;18.30;;;12.33;;
5052;SDS011;2545;50.892;5.740;2023-04-24T03:38:42;26.00;;;12.20;;
5052;SDS011;2545;50.892;5.740;2023-04-24T03:41:07;19.03;;;10.97;;
5052;SDS011;2545;50.892;5.740;2023-04-24T03:43:33;17.33;;;11.80;;
5052;SDS011;2545;50.892;5.740;2023-04-24T03:45:59;26.07;;;11.90;;
5052;SDS011;2545;50.892;5.740;2023-04-24T03:48:25;22.00;;;12.03;;
5052;SDS011;2545;50.892;5.740;2023-04-24T03:50:50;19.27;;;11.57;;
5052;SDS011;2545;50.892;5.740;2023-04-24T03:53:16;20.73;;;12.00;;
5052;SDS011;2545;50.892;5.740;2023-04-24T03:55:41;18.70;;;12.30;;
5052;SDS011;2545;50.892;5.740;2023-04-24T03:58:06;21.03;;;12.07;;
5052;SDS011;2545;50.892;5.740;2023-04-24T04:00:32;16.93;;;10.77;;
5052;SDS011;2545;50.892;5.740;2023-04-24T04:02:58;21.07;;;11.53;;
5052;SDS011;2545;50.892;5.740;2023-04-24T04:05:23;17.80;;;10.93;;
5052;SDS011;2545;50.892;5.740;2023-04-24T04:07:49;18.97;;;10.53;;
5052;SDS011;2545;50.892;5.740;2023-04-24T04:10:14;16.53;;;11.67;;
5052;SDS011;2545;50.892;5.740;2023-04-24T04:12:39;25.63;;;11.17;;
5052;SDS011;2545;50.892;5.740;2023-04-24T04:15:05;23.10;;;10.20;;
5052;SDS011;2545;50.892;5.740;2023-04-24T04:17:31;14.37;;;10.23;;
5052;SDS011;2545;50.892;5.740;2023-04-24T04:19:57;27.33;;;11.70;;
5052;SDS011;2545;50.892;5.740;2023-04-24T04:22:22;15.93;;;10.20;;
5052;SDS011;2545;50.892;5.740;2023-04-24T04:24:47;19.00;;;9.13;;
5052;SDS011;2545;50.892;5.740;2023-04-24T04:27:13;19.20;;;11.00;;
5052;SDS011;2545;50.892;5.740;2023-04-24T04:29:38;21.00;;;11.33;;
5052;SDS011;2545;50.892;5.740;2023-04-24T04:32:05;22.27;;;10.93;;
5052;SDS011;2545;50.892;5.740;2023-04-24T04:34:31;22.70;;;10.77;;
5052;SDS011;2545;50.892;5.740;2023-04-24T04:36:56;16.50;;;10.33;;
5052;SDS011;2545;50.892;5.740;2023-04-24T04:39:24;16.00;;;10.00;;
5052;SDS011;2545;50.892;5.740;2023-04-24T04:41:49;16.23;;;10.60;;
5052;SDS011;2545;50.892;5.740;2023-04-24T04:44:15;15.97;;;10.07;;
5052;SDS011;2545;50.892;5.740;2023-04-24T04:46:40;24.17;;;10.37;;
5052;SDS011;2545;50.892;5.740;2023-04-24T04:49:06;16.00;;;11.63;;
5052;SDS011;2545;50.892;5.740;2023-04-24T04:51:33;16.77;;;10.27;;
5052;SDS011;2545;50.892;5.740;2023-04-24T04:53:59;26.17;;;10.83;;
5052;SDS011;2545;50.892;5.740;2023-04-24T04:56:24;14.10;;;9.07;;
5052;SDS011;2545;50.892;5.740;2023-04-24T04:58:50;19.70;;;9.97;;
5052;SDS011;2545;50.892;5.740;2023-04-24T05:01:15;12.57;;;8.13;;
5052;SDS011;2545;50.892;5.740;2023-04-24T05:03:42;15.73;;;8.10;;
5052;SDS011;2545;50.892;5.740;2023-04-24T05:06:07;18.07;;;8.93;;
5052;SDS011;2545;50.892;5.740;2023-04-24T05:08:33;15.80;;;9.40;;
5052;SDS011;2545;50.892;5.740;2023-04-24T05:10:58;14.93;;;9.37;;
5052;SDS011;2545;50.892;5.740;2023-04-24T05:13:23;12.53;;;8.00;;
5052;SDS011;2545;50.892;5.740;2023-04-24T05:15:49;15.67;;;8.73;;
5052;SDS011;2545;50.892;5.740;2023-04-24T05:18:14;19.57;;;9.40;;
5052;SDS011;2545;50.892;5.740;2023-04-24T05:20:40;17.83;;;9.87;;
5052;SDS011;2545;50.892;5.740;2023-04-24T05:23:08;15.17;;;9.67;;
5052;SDS011;2545;50.892;5.740;2023-04-24T05:25:33;16.83;;;9.60;;
5052;SDS011;2545;50.892;5.740;2023-04-24T05:28:00;13.50;;;9.80;;
5052;SDS011;2545;50.892;5.740;2023-04-24T05:30:25;17.57;;;8.93;;
5052;SDS011;2545;50.892;5.740;2023-04-24T05:32:51;15.83;;;8.50;;
5052;SDS011;2545;50.892;5.740;2023-04-24T05:35:16;18.90;;;8.70;;
5052;SDS011;2545;50.892;5.740;2023-04-24T05:37:41;13.30;;;8.60;;
5052;SDS011;2545;50.892;5.740;2023-04-24T05:40:07;13.60;;;9.23;;
5052;SDS011;2545;50.892;5.740;2023-04-24T05:42:33;15.73;;;8.27;;
5052;SDS011;2545;50.892;5.740;2023-04-24T05:44:59;10.70;;;8.00;;
5052;SDS011;2545;50.892;5.740;2023-04-24T05:47:24;10.13;;;6.60;;
5052;SDS011;2545;50.892;5.740;2023-04-24T05:49:51;9.27;;;6.60;;
5052;SDS011;2545;50.892;5.740;2023-04-24T05:52:16;7.73;;;5.97;;
5052;SDS011;2545;50.892;5.740;2023-04-24T05:54:42;16.73;;;7.00;;
5052;SDS011;2545;50.892;5.740;2023-04-24T05:57:07;10.00;;;6.83;;
5052;SDS011;2545;50.892;5.740;2023-04-24T05:59:36;10.77;;;7.23;;
5052;SDS011;2545;50.892;5.740;2023-04-24T06:02:05;12.60;;;7.87;;
5052;SDS011;2545;50.892;5.740;2023-04-24T06:04:31;17.23;;;8.10;;
5052;SDS011;2545;50.892;5.740;2023-04-24T06:06:57;9.27;;;7.60;;
5052;SDS011;2545;50.892;5.740;2023-04-24T06:09:22;11.67;;;7.40;;
5052;SDS011;2545;50.892;5.740;2023-04-24T06:11:48;12.93;;;6.93;;
5052;SDS011;2545;50.892;5.740;2023-04-24T06:14:17;9.23;;;6.60;;
5052;SDS011;2545;50.892;5.740;2023-04-24T06:16:42;14.47;;;6.33;;
5052;SDS011;2545;50.892;5.740;2023-04-24T06:19:08;9.90;;;6.30;;
5052;SDS011;2545;50.892;5.740;2023-04-24T06:21:33;7.00;;;4.63;;
5052;SDS011;2545;50.892;5.740;2023-04-24T06:23:58;6.30;;;4.97;;
5052;SDS011;2545;50.892;5.740;2023-04-24T06:26:24;7.77;;;4.70;;
5052;SDS011;2545;50.892;5.740;2023-04-24T06:28:52;6.63;;;4.73;;
5052;SDS011;2545;50.892;5.740;2023-04-24T06:31:20;8.53;;;4.90;;
5052;SDS011;2545;50.892;5.740;2023-04-24T06:33:46;11.63;;;5.13;;
5052;SDS011;2545;50.892;5.740;2023-04-24T06:36:11;8.20;;;5.13;;
5052;SDS011;2545;50.892;5.740;2023-04-24T06:38:37;22.07;;;5.07;;
5052;SDS011;2545;50.892;5.740;2023-04-24T06:41:03;8.47;;;5.13;;
5052;SDS011;2545;50.892;5.740;2023-04-24T06:43:30;10.50;;;6.00;;
5052;SDS011;2545;50.892;5.740;2023-04-24T06:45:56;10.43;;;6.63;;
5052;SDS011;2545;50.892;5.740;2023-04-24T06:48:22;11.90;;;5.70;;
5052;SDS011;2545;50.892;5.740;2023-04-24T06:50:48;9.47;;;6.03;;
5052;SDS011;2545;50.892;5.740;2023-04-24T06:53:14;13.23;;;7.07;;
5052;SDS011;2545;50.892;5.740;2023-04-24T06:55:39;12.70;;;7.47;;
5052;SDS011;2545;50.892;5.740;2023-04-24T06:58:05;10.50;;;7.00;;
5052;SDS011;2545;50.892;5.740;2023-04-24T07:00:31;9.87;;;6.57;;
5052;SDS011;2545;50.892;5.740;2023-04-24T07:02:56;15.30;;;7.70;;
5052;SDS011;2545;50.892;5.740;2023-04-24T07:05:22;9.10;;;6.50;;
5052;SDS011;2545;50.892;5.740;2023-04-24T07:07:48;14.10;;;7.10;;
5052;SDS011;2545;50.892;5.740;2023-04-24T07:10:14;12.37;;;6.00;;
5052;SDS011;2545;50.892;5.740;2023-04-24T07:12:40;12.13;;;6.70;;
5052;SDS011;2545;50.892;5.740;2023-04-24T07:15:05;10.23;;;6.53;;
5052;SDS011;2545;50.892;5.740;2023-04-24T07:17:33;13.27;;;6.10;;
5052;SDS011;2545;50.892;5.740;2023-04-24T07:19:59;13.63;;;7.47;;
5052;SDS011;2545;50.892;5.740;2023-04-24T07:22:25;9.43;;;6.80;;
5052;SDS011;2545;50.892;5.740;2023-04-24T07:24:50;12.97;;;7.93;;
5052;SDS011;2545;50.892;5.740;2023-04-24T07:27:16;11.87;;;7.07;;
5052;SDS011;2545;50.892;5.740;2023-04-24T07:29:41;13.50;;;7.90;;
5052;SDS011;2545;50.892;5.740;2023-04-24T07:32:07;9.20;;;7.03;;
5052;SDS011;2545;50.892;5.740;2023-04-24T07:34:32;9.97;;;6.57;;
5052;SDS011;2545;50.892;5.740;2023-04-24T07:36:58;12.63;;;8.40;;
5052;SDS011;2545;50.892;5.740;2023-04-24T07:39:23;22.97;;;9.37;;
5052;SDS011;2545;50.892;5.740;2023-04-24T07:41:49;14.20;;;9.10;;
5052;SDS011;2545;50.892;5.740;2023-04-24T07:44:14;19.33;;;9.70;;
5052;SDS011;2545;50.892;5.740;2023-04-24T07:46:40;16.73;;;9.80;;
5052;SDS011;2545;50.892;5.740;2023-04-24T07:49:05;15.63;;;10.63;;
5052;SDS011;2545;50.892;5.740;2023-04-24T07:51:31;32.20;;;10.50;;
5052;SDS011;2545;50.892;5.740;2023-04-24T07:53:58;14.57;;;10.50;;
5052;SDS011;2545;50.892;5.740;2023-04-24T07:56:23;19.90;;;10.90;;
5052;SDS011;2545;50.892;5.740;2023-04-24T07:58:49;22.53;;;10.87;;
5052;SDS011;2545;50.892;5.740;2023-04-24T08:01:14;14.70;;;10.83;;
5052;SDS011;2545;50.892;5.740;2023-04-24T08:03:40;24.10;;;12.60;;
5052;SDS011;2545;50.892;5.740;2023-04-24T08:06:05;19.93;;;10.57;;
5052;SDS011;2545;50.892;5.740;2023-04-24T08:08:31;26.63;;;11.33;;
5052;SDS011;2545;50.892;5.740;2023-04-24T08:10:57;31.10;;;11.87;;
5052;SDS011;2545;50.892;5.740;2023-04-24T08:13:22;21.43;;;11.63;;
5052;SDS011;2545;50.892;5.740;2023-04-24T08:15:48;22.80;;;10.80;;
5052;SDS011;2545;50.892;5.740;2023-04-24T08:18:13;17.07;;;9.57;;
5052;SDS011;2545;50.892;5.740;2023-04-24T08:20:40;19.97;;;10.33;;
5052;SDS011;2545;50.892;5.740;2023-04-24T08:23:06;14.03;;;9.17;;
5052;SDS011;2545;50.892;5.740;2023-04-24T08:25:31;17.77;;;10.77;;
5052;SDS011;2545;50.892;5.740;2023-04-24T08:27:57;15.40;;;10.67;;
5052;SDS011;2545;50.892;5.740;2023-04-24T08:30:22;16.53;;;9.83;;
5052;SDS011;2545;50.892;5.740;2023-04-24T08:32:48;16.00;;;9.50;;
5052;SDS011;2545;50.892;5.740;2023-04-24T08:35:13;13.93;;;10.20;;
5052;SDS011;2545;50.892;5.740;2023-04-24T08:37:38;14.37;;;8.93;;
5052;SDS011;2545;50.892;5.740;2023-04-24T08:40:05;15.77;;;10.00;;
5052;SDS011;2545;50.892;5.740;2023-04-24T08:42:35;13.30;;;8.20;;
5052;SDS011;2545;50.892;5.740;2023-04-24T08:45:02;16.10;;;9.37;;
5052;SDS011;2545;50.892;5.740;2023-04-24T08:47:27;20.03;;;11.10;;
5052;SDS011;2545;50.892;5.740;2023-04-24T08:49:54;28.73;;;12.60;;
5052;SDS011;2545;50.892;5.740;2023-04-24T08:52:20;22.30;;;11.13;;
5052;SDS011;2545;50.892;5.740;2023-04-24T08:54:46;19.80;;;10.83;;
5052;SDS011;2545;50.892;5.740;2023-04-24T08:57:12;21.07;;;11.17;;
5052;SDS011;2545;50.892;5.740;2023-04-24T08:59:39;22.60;;;11.77;;
5052;SDS011;2545;50.892;5.740;2023-04-24T09:02:05;22.03;;;12.43;;
5052;SDS011;2545;50.892;5.740;2023-04-24T09:04:34;21.70;;;11.70;;
5052;SDS011;2545;50.892;5.740;2023-04-24T09:07:00;24.83;;;10.50;;
5052;SDS011;2545;50.892;5.740;2023-04-24T09:09:27;26.20;;;11.80;;
5052;SDS011;2545;50.892;5.740;2023-04-24T09:11:55;22.50;;;12.40;;
5052;SDS011;2545;50.892;5.740;2023-04-24T09:14:22;21.30;;;11.60;;
5052;SDS011;2545;50.892;5.740;2023-04-24T09:16:48;30.90;;;12.37;;
5052;SDS011;2545;50.892;5.740;2023-04-24T09:19:14;21.53;;;10.63;;
5052;SDS011;2545;50.892;5.740;2023-04-24T09:21:40;19.33;;;11.67;;
5052;SDS011;2545;50.892;5.740;2023-04-24T09:24:08;20.93;;;11.27;;
5052;SDS011;2545;50.892;5.740;2023-04-24T09:26:42;15.63;;;10.70;;
5052;SDS011;2545;50.892;5.740;2023-04-24T09:29:13;21.43;;;10.07;;
5052;SDS011;2545;50.892;5.740;2023-04-24T09:31:42;23.20;;;10.80;;
5052;SDS011;2545;50.892;5.740;2023-04-24T09:34:09;19.83;;;9.70;;
5052;SDS011;2545;50.892;5.740;2023-04-24T09:36:36;26.20;;;9.87;;
5052;SDS011;2545;50.892;5.740;2023-04-24T09:39:03;19.00;;;9.73;;
5052;SDS011;2545;50.892;5.740;2023-04-24T09:41:31;13.50;;;8.17;;
5052;SDS011;2545;50.892;5.740;2023-04-24T09:44:10;12.83;;;7.23;;
5052;SDS011;2545;50.892;5.740;2023-04-24T09:46:37;13.10;;;6.20;;
5052;SDS011;2545;50.892;5.740;2023-04-24T09:49:08;10.13;;;6.13;;
5052;SDS011;2545;50.892;5.740;2023-04-24T09:51:36;7.83;;;4.93;;
5052;SDS011;2545;50.892;5.740;2023-04-24T09:54:03;14.07;;;4.70;;
5052;SDS011;2545;50.892;5.740;2023-04-24T09:56:32;12.23;;;5.60;;
5052;SDS011;2545;50.892;5.740;2023-04-24T09:59:07;11.73;;;4.60;;
5052;SDS011;2545;50.892;5.740;2023-04-24T10:01:32;10.13;;;4.73;;
5052;SDS011;2545;50.892;5.740;2023-04-24T10:03:58;7.90;;;3.50;;
5052;SDS011;2545;50.892;5.740;2023-04-24T10:06:29;17.70;;;5.40;;
5052;SDS011;2545;50.892;5.740;2023-04-24T10:08:57;11.83;;;5.97;;
5052;SDS011;2545;50.892;5.740;2023-04-24T10:11:24;8.93;;;5.87;;
5052;SDS011;2545;50.892;5.740;2023-04-24T10:13:53;13.30;;;6.60;;
5052;SDS011;2545;50.892;5.740;2023-04-24T10:16:18;12.97;;;6.30;;
5052;SDS011;2545;50.892;5.740;2023-04-24T10:18:46;14.53;;;6.60;;
5052;SDS011;2545;50.892;5.740;2023-04-24T10:21:14;13.20;;;6.43;;
5052;SDS011;2545;50.892;5.740;2023-04-24T10:23:40;13.53;;;6.37;;
5052;SDS011;2545;50.892;5.740;2023-04-24T10:26:06;21.90;;;8.23;;
5052;SDS011;2545;50.892;5.740;2023-04-24T10:28:34;14.30;;;5.97;;
5052;SDS011;2545;50.892;5.740;2023-04-24T10:31:01;15.10;;;6.33;;
5052;SDS011;2545;50.892;5.740;2023-04-24T10:33:27;22.63;;;7.77;;
5052;SDS011;2545;50.892;5.740;2023-04-24T10:35:53;17.10;;;7.40;;
5052;SDS011;2545;50.892;5.740;2023-04-24T10:38:22;18.33;;;8.03;;
5052;SDS011;2545;50.892;5.740;2023-04-24T10:40:50;13.40;;;7.70;;
5052;SDS011;2545;50.892;5.740;2023-04-24T10:43:16;11.80;;;7.13;;
5052;SDS011;2545;50.892;5.740;2023-04-24T10:45:42;13.10;;;7.73;;
5052;SDS011;2545;50.892;5.740;2023-04-24T10:48:28;9.93;;;6.47;;
5052;SDS011;2545;50.892;5.740;2023-04-24T10:50:54;17.13;;;7.77;;
5052;SDS011;2545;50.892;5.740;2023-04-24T10:53:24;9.20;;;5.73;;
5052;SDS011;2545;50.892;5.740;2023-04-24T10:56:00;16.33;;;7.50;;
5052;SDS011;2545;50.892;5.740;2023-04-24T10:58:41;15.27;;;7.60;;
5052;SDS011;2545;50.892;5.740;2023-04-24T11:01:24;15.57;;;6.20;;
5052;SDS011;2545;50.892;5.740;2023-04-24T11:03:50;11.60;;;6.20;;
5052;SDS011;2545;50.892;5.740;2023-04-24T11:06:25;13.47;;;5.27;;
5052;SDS011;2545;50.892;5.740;2023-04-24T11:09:03;14.30;;;5.40;;
5052;SDS011;2545;50.892;5.740;2023-04-24T11:11:31;10.90;;;5.80;;
5052;SDS011;2545;50.892;5.740;2023-04-24T11:16:35;15.63;;;5.80;;
5052;SDS011;2545;50.892;5.740;2023-04-24T11:21:42;18.50;;;5.90;;
5052;SDS011;2545;50.892;5.740;2023-04-24T11:27:18;17.37;;;5.70;;
5052;SDS011;2545;50.892;5.740;2023-04-24T11:29:48;12.30;;;5.57;;
5052;SDS011;2545;50.892;5.740;2023-04-24T11:32:26;16.87;;;5.30;;
5052;SDS011;2545;50.892;5.740;2023-04-24T11:35:14;16.67;;;6.07;;
5052;SDS011;2545;50.892;5.740;2023-04-24T11:37:47;14.20;;;5.33;;
5052;SDS011;2545;50.892;5.740;2023-04-24T11:40:17;14.87;;;6.03;;
5052;SDS011;2545;50.892;5.740;2023-04-24T11:42:48;20.33;;;7.13;;
5052;SDS011;2545;50.892;5.740;2023-04-24T11:45:16;18.43;;;7.20;;
5052;SDS011;2545;50.892;5.740;2023-04-24T11:47:43;11.27;;;6.80;;
5052;SDS011;2545;50.892;5.740;2023-04-24T11:50:11;24.40;;;8.33;;
5052;SDS011;2545;50.892;5.740;2023-04-24T11:52:39;14.50;;;8.10;;
5052;SDS011;2545;50.892;5.740;2023-04-24T11:57:41;18.00;;;7.63;;
5052;SDS011;2545;50.892;5.740;2023-04-24T12:00:14;19.90;;;6.47;;
5052;SDS011;2545;50.892;5.740;2023-04-24T12:02:41;12.77;;;5.60;;
5052;SDS011;2545;50.892;5.740;2023-04-24T12:05:06;8.77;;;5.20;;
5052;SDS011;2545;50.892;5.740;2023-04-24T12:07:36;12.80;;;7.40;;
5052;SDS011;2545;50.892;5.740;2023-04-24T12:10:07;12.47;;;6.70;;
5052;SDS011;2545;50.892;5.740;2023-04-24T12:12:34;9.83;;;6.23;;
5052;SDS011;2545;50.892;5.740;2023-04-24T12:15:00;15.77;;;6.00;;
5052;SDS011;2545;50.892;5.740;2023-04-24T12:17:27;8.43;;;4.53;;
5052;SDS011;2545;50.892;5.740;2023-04-24T12:20:02;9.73;;;5.70;;
5052;SDS011;2545;50.892;5.740;2023-04-24T12:25:15;9.00;;;4.57;;
5052;SDS011;2545;50.892;5.740;2023-04-24T12:27:41;8.50;;;4.90;;
5052;SDS011;2545;50.892;5.740;2023-04-24T12:30:09;8.03;;;3.90;;
5052;SDS011;2545;50.892;5.740;2023-04-24T12:32:40;8.67;;;4.13;;
5052;SDS011;2545;50.892;5.740;2023-04-24T12:35:07;15.93;;;5.13;;
5052;SDS011;2545;50.892;5.740;2023-04-24T12:37:33;12.03;;;4.70;;
5052;SDS011;2545;50.892;5.740;2023-04-24T12:42:28;15.13;;;4.83;;
5052;SDS011;2545;50.892;5.740;2023-04-24T12:44:56;13.93;;;5.30;;
5052;SDS011;2545;50.892;5.740;2023-04-24T12:47:24;10.37;;;5.50;;
5052;SDS011;2545;50.892;5.740;2023-04-24T12:49:49;12.50;;;4.50;;
5052;SDS011;2545;50.892;5.740;2023-04-24T12:52:17;9.27;;;4.27;;
5052;SDS011;2545;50.892;5.740;2023-04-24T12:54:42;7.30;;;4.73;;
5052;SDS011;2545;50.892;5.740;2023-04-24T12:57:08;7.20;;;3.80;;
5052;SDS011;2545;50.892;5.740;2023-04-24T12:59:33;6.93;;;4.00;;
5052;SDS011;2545;50.892;5.740;2023-04-24T13:01:58;8.00;;;3.70;;
5052;SDS011;2545;50.892;5.740;2023-04-24T13:04:23;4.33;;;3.43;;
5052;SDS011;2545;50.892;5.740;2023-04-24T13:06:49;8.53;;;4.33;;
5052;SDS011;2545;50.892;5.740;2023-04-24T13:09:15;7.80;;;3.70;;
5052;SDS011;2545;50.892;5.740;2023-04-24T13:11:40;8.03;;;3.77;;
5052;SDS011;2545;50.892;5.740;2023-04-24T13:14:05;7.90;;;3.67;;
5052;SDS011;2545;50.892;5.740;2023-04-24T13:16:31;8.53;;;4.67;;
5052;SDS011;2545;50.892;5.740;2023-04-24T13:18:56;8.10;;;3.67;;
5052;SDS011;2545;50.892;5.740;2023-04-24T13:21:21;9.90;;;4.60;;
5052;SDS011;2545;50.892;5.740;2023-04-24T13:23:47;9.30;;;4.13;;
5052;SDS011;2545;50.892;5.740;2023-04-24T13:26:12;8.50;;;4.17;;
5052;SDS011;2545;50.892;5.740;2023-04-24T13:28:37;5.37;;;3.70;;
5052;SDS011;2545;50.892;5.740;2023-04-24T13:31:03;6.50;;;4.13;;
5052;SDS011;2545;50.892;5.740;2023-04-24T13:33:28;4.57;;;3.60;;
5052;SDS011;2545;50.892;5.740;2023-04-24T13:35:53;7.80;;;4.47;;
5052;SDS011;2545;50.892;5.740;2023-04-24T13:38:19;7.40;;;4.17;;
5052;SDS011;2545;50.892;5.740;2023-04-24T13:40:46;14.17;;;4.17;;
5052;SDS011;2545;50.892;5.740;2023-04-24T13:43:11;10.37;;;4.37;;
5052;SDS011;2545;50.892;5.740;2023-04-24T13:45:37;7.90;;;4.50;;
5052;SDS011;2545;50.892;5.740;2023-04-24T13:48:02;4.93;;;3.87;;
5052;SDS011;2545;50.892;5.740;2023-04-24T13:50:28;7.87;;;4.17;;
5052;SDS011;2545;50.892;5.740;2023-04-24T13:52:54;6.50;;;4.10;;
5052;SDS011;2545;50.892;5.740;2023-04-24T13:55:19;8.10;;;4.40;;
5052;SDS011;2545;50.892;5.740;2023-04-24T13:57:44;9.57;;;4.73;;
5052;SDS011;2545;50.892;5.740;2023-04-24T14:00:10;7.00;;;4.07;;
5052;SDS011;2545;50.892;5.740;2023-04-24T14:02:36;8.83;;;4.13;;
5052;SDS011;2545;50.892;5.740;2023-04-24T14:05:02;7.93;;;3.90;;
5052;SDS011;2545;50.892;5.740;2023-04-24T14:07:28;12.47;;;4.27;;
5052;SDS011;2545;50.892;5.740;2023-04-24T14:09:53;12.87;;;4.00;;
5052;SDS011;2545;50.892;5.740;2023-04-24T14:12:19;9.60;;;4.17;;
5052;SDS011;2545;50.892;5.740;2023-04-24T14:14:46;6.23;;;4.13;;
5052;SDS011;2545;50.892;5.740;2023-04-24T14:17:13;11.10;;;4.20;;
5052;SDS011;2545;50.892;5.740;2023-04-24T14:19:38;9.80;;;3.93;;
5052;SDS011;2545;50.892;5.740;2023-04-24T14:22:05;7.13;;;3.90;;
5052;SDS011;2545;50.892;5.740;2023-04-24T14:24:30;15.10;;;4.20;;
5052;SDS011;2545;50.892;5.740;2023-04-24T14:26:55;6.53;;;3.47;;
5052;SDS011;2545;50.892;5.740;2023-04-24T14:29:21;4.53;;;3.67;;
5052;SDS011;2545;50.892;5.740;2023-04-24T14:31:46;7.23;;;3.13;;
5052;SDS011;2545;50.892;5.740;2023-04-24T14:34:13;6.80;;;3.90;;
5052;SDS011;2545;50.892;5.740;2023-04-24T14:36:38;9.13;;;4.30;;
5052;SDS011;2545;50.892;5.740;2023-04-24T14:39:04;6.67;;;4.07;;
5052;SDS011;2545;50.892;5.740;2023-04-24T14:41:32;7.17;;;4.10;;
5052;SDS011;2545;50.892;5.740;2023-04-24T14:44:01;9.37;;;4.30;;
5052;SDS011;2545;50.892;5.740;2023-04-24T14:46:27;8.00;;;3.30;;
5052;SDS011;2545;50.892;5.740;2023-04-24T14:48:53;6.60;;;3.83;;
5052;SDS011;2545;50.892;5.740;2023-04-24T14:51:18;7.50;;;3.47;;
5052;SDS011;2545;50.892;5.740;2023-04-24T14:53:44;8.50;;;3.63;;
5052;SDS011;2545;50.892;5.740;2023-04-24T14:56:11;8.90;;;3.40;;
5052;SDS011;2545;50.892;5.740;2023-04-24T14:58:37;9.67;;;3.40;;
5052;SDS011;2545;50.892;5.740;2023-04-24T15:01:02;8.63;;;3.67;;
5052;SDS011;2545;50.892;5.740;2023-04-24T15:03:27;6.47;;;3.57;;
5052;SDS011;2545;50.892;5.740;2023-04-24T15:05:54;7.83;;;4.00;;
5052;SDS011;2545;50.892;5.740;2023-04-24T15:08:19;8.40;;;3.80;;
5052;SDS011;2545;50.892;5.740;2023-04-24T15:10:45;4.23;;;3.00;;
5052;SDS011;2545;50.892;5.740;2023-04-24T15:13:11;11.70;;;4.00;;